createdAt,value
2019-04-16T00:00:26.546Z,5.60
2019-04-16T00:03:30.919Z,5.80
2019-04-16T00:06:52.945Z,5.60
2019-04-16T00:10:25.658Z,5.80
2019-04-16T00:13:55.132Z,5.80
2019-04-16T00:16:59.382Z,5.80
2019-04-16T00:20:06.608Z,5.70
2019-04-16T00:23:18.938Z,5.70
2019-04-16T00:26:26.495Z,5.90
2019-04-16T00:29:32.716Z,6.00
2019-04-16T00:32:37.997Z,5.90
2019-04-16T00:35:41.311Z,6.00
2019-04-16T00:38:45.595Z,6.00
2019-04-16T00:41:49.807Z,6.10
2019-04-16T00:44:54.108Z,6.20
2019-04-16T00:47:58.424Z,6.20
2019-04-16T00:51:02.834Z,6.10
2019-04-16T00:54:10.457Z,6.20
2019-04-16T00:57:17.676Z,6.30
2019-04-16T01:00:19.588Z,6.30
2019-04-16T01:03:23.996Z,6.40
2019-04-16T01:06:28.370Z,6.30
2019-04-16T01:09:32.686Z,6.40
2019-04-16T01:12:36.985Z,6.40
2019-04-16T01:15:41.278Z,6.50
2019-04-16T01:18:45.632Z,6.30
2019-04-16T01:21:49.915Z,6.40
2019-04-16T01:24:54.208Z,6.50
2019-04-16T01:28:01.820Z,6.40
2019-04-16T01:31:22.432Z,6.40
2019-04-16T01:34:57.748Z,6.40
2019-04-16T01:38:19.919Z,6.40
2019-04-16T01:41:24.206Z,6.40
2019-04-16T01:44:29.447Z,6.40
2019-04-16T01:47:37.032Z,6.50
2019-04-16T01:50:43.536Z,6.50
2019-04-16T01:53:46.325Z,6.40
2019-04-16T01:56:50.643Z,6.30
2019-04-16T01:59:55.045Z,6.40
2019-04-16T02:03:06.049Z,6.40
2019-04-16T02:06:10.466Z,6.30
2019-04-16T02:09:22.549Z,6.30
2019-04-16T02:12:20.821Z,6.30
2019-04-16T02:15:25.181Z,6.30
2019-04-16T02:18:30.318Z,6.20
2019-04-16T02:21:34.792Z,6.20
2019-04-16T02:24:39.254Z,6.20
2019-04-16T02:27:45.043Z,6.10
2019-04-16T02:30:49.363Z,6.10
2019-04-16T02:33:55.533Z,6.00
2019-04-16T02:37:02.498Z,6.00
2019-04-16T02:40:08.899Z,5.90
2019-04-16T02:43:15.128Z,5.80
2019-04-16T02:46:19.504Z,5.90
2019-04-16T02:49:25.155Z,5.80
2019-04-16T02:52:41.121Z,5.80
2019-04-16T02:55:53.342Z,5.80
2019-04-16T02:59:09.549Z,5.70
2019-04-16T03:02:46.299Z,5.80
2019-04-16T03:05:52.161Z,5.70
2019-04-16T03:08:56.485Z,5.70
2019-04-16T03:12:00.902Z,5.70
2019-04-16T03:15:05.373Z,5.70
2019-04-16T03:18:11.679Z,5.80
2019-04-16T03:21:18.754Z,5.70
2019-04-16T03:24:23.111Z,5.70
2019-04-16T03:27:27.433Z,5.60
2019-04-16T03:30:40.425Z,5.50
2019-04-16T03:33:37.849Z,5.50
2019-04-16T03:36:42.149Z,5.40
2019-04-16T03:39:46.514Z,5.30
2019-04-16T03:42:50.812Z,5.30
2019-04-16T03:45:55.121Z,5.40
2019-04-16T03:48:59.528Z,5.30
2019-04-16T03:52:04.816Z,5.40
2019-04-16T03:55:09.987Z,5.50
2019-04-16T03:58:14.256Z,5.60
2019-04-16T04:01:18.634Z,5.50
2019-04-16T04:04:22.918Z,5.40
2019-04-16T04:07:27.349Z,5.50
2019-04-16T04:10:36.758Z,5.60
2019-04-16T04:13:37.785Z,5.50
2019-04-16T04:16:42.188Z,5.40
2019-04-16T04:19:46.892Z,5.40
2019-04-16T04:22:51.248Z,5.40
2019-04-16T04:25:55.576Z,5.30
2019-04-16T04:28:59.937Z,5.30
2019-04-16T04:32:04.341Z,5.40
2019-04-16T04:35:08.792Z,5.40
2019-04-16T04:38:13.109Z,5.50
2019-04-16T04:41:20.165Z,5.40
2019-04-16T04:44:23.625Z,5.60
2019-04-16T04:47:28.005Z,5.70
2019-04-16T04:50:35.018Z,5.80
2019-04-16T04:53:38.354Z,6.10
2019-04-16T04:56:42.611Z,6.20
2019-04-16T04:59:47.359Z,6.60
2019-04-16T05:02:51.649Z,6.90
2019-04-16T05:05:57.517Z,7.40
2019-04-16T05:09:01.869Z,7.90
2019-04-16T05:12:08.048Z,8.40
2019-04-16T05:15:12.545Z,9.00
2019-04-16T05:18:16.865Z,9.40
2019-04-16T05:21:21.157Z,9.70
2019-04-16T05:24:28.852Z,10.10
2019-04-16T05:27:32.726Z,10.60
2019-04-16T05:30:37.029Z,11.00
2019-04-16T05:33:42.837Z,11.30
2019-04-16T05:36:48.136Z,11.70
2019-04-16T05:39:52.549Z,11.90
2019-04-16T05:42:58.811Z,12.20
2019-04-16T05:46:05.506Z,12.40
2019-04-16T05:49:08.961Z,12.50
2019-04-16T05:52:13.258Z,12.60
2019-04-16T05:55:31.866Z,12.70
2019-04-16T05:58:36.286Z,12.70
2019-04-16T06:02:05.546Z,12.80
2019-04-16T06:05:10.282Z,12.80
2019-04-16T06:08:14.589Z,12.80
2019-04-16T06:11:28.693Z,12.50
2019-04-16T06:14:46.499Z,12.20
2019-04-16T06:18:18.055Z,11.80
2019-04-16T06:21:56.414Z,11.50
2019-04-16T06:25:15.890Z,11.00
2019-04-16T06:28:33.577Z,10.60
2019-04-16T06:32:00.559Z,10.30
2019-04-16T06:35:24.960Z,10.20
2019-04-16T06:38:43.797Z,10.10
2019-04-16T06:42:07.215Z,10.20
2019-04-16T06:45:27.077Z,10.50
2019-04-16T06:48:35.343Z,10.90
2019-04-16T06:51:59.718Z,11.40
2019-04-16T06:55:12.462Z,11.80
2019-04-16T06:58:28.431Z,12.40
2019-04-16T07:01:56.912Z,12.80
2019-04-16T07:05:31.411Z,13.30
2019-04-16T07:09:00.541Z,13.60
2019-04-16T07:12:08.745Z,14.10
2019-04-16T07:15:13.460Z,14.50
2019-04-16T07:18:20.522Z,14.70
2019-04-16T07:21:24.489Z,15.10
2019-04-16T07:24:30.836Z,15.50
2019-04-16T07:27:59.858Z,15.90
2019-04-16T07:31:16.554Z,16.20
2019-04-16T07:34:44.146Z,16.40
2019-04-16T07:38:11.654Z,16.90
2019-04-16T07:41:43.288Z,17.00
2019-04-16T07:45:11.372Z,17.20
2019-04-16T07:48:22.521Z,17.30
2019-04-16T07:51:35.810Z,17.40
2019-04-16T07:54:49.512Z,17.60
2019-04-16T07:57:55.861Z,17.60
2019-04-16T08:01:00.314Z,17.80
2019-04-16T08:04:04.631Z,17.90
2019-04-16T08:07:09.010Z,18.20
2019-04-16T08:10:16.778Z,18.40
2019-04-16T08:13:21.824Z,18.50
2019-04-16T08:16:26.127Z,18.80
2019-04-16T08:19:37.038Z,19.10
2019-04-16T08:22:39.942Z,19.20
2019-04-16T08:25:43.644Z,19.20
2019-04-16T08:28:47.911Z,19.20
2019-04-16T08:31:52.222Z,19.20
2019-04-16T08:34:56.746Z,19.10
2019-04-16T08:38:01.172Z,19.10
2019-04-16T08:41:05.626Z,19.10
2019-04-16T08:44:12.725Z,19.30
2019-04-16T08:47:20.116Z,19.30
2019-04-16T08:50:26.160Z,19.30
2019-04-16T08:53:30.692Z,19.20
2019-04-16T08:56:35.055Z,19.40
2019-04-16T08:59:42.342Z,19.50
2019-04-16T09:02:45.452Z,19.80
2019-04-16T09:05:49.760Z,20.00
2019-04-16T09:09:18.492Z,20.10
2019-04-16T09:12:23.429Z,20.20
2019-04-16T09:15:33.327Z,20.40
2019-04-16T09:19:05.883Z,20.50
2019-04-16T09:22:15.734Z,20.50
2019-04-16T09:25:53.731Z,20.40
2019-04-16T09:29:26.097Z,20.50
2019-04-16T09:32:29.483Z,20.50
2019-04-16T09:35:38.630Z,20.40
2019-04-16T09:39:07.899Z,20.30
2019-04-16T09:42:12.130Z,20.40
2019-04-16T09:45:18.423Z,20.60
2019-04-16T09:48:22.747Z,20.90
2019-04-16T09:51:27.059Z,20.90
2019-04-16T09:54:31.439Z,20.80
2019-04-16T09:57:35.746Z,20.80
2019-04-16T10:00:41.606Z,20.80
2019-04-16T10:03:47.449Z,20.80
2019-04-16T10:06:51.864Z,20.90
2019-04-16T10:09:56.156Z,21.20
2019-04-16T10:13:00.483Z,21.40
2019-04-16T10:16:04.946Z,21.30
2019-04-16T10:19:09.379Z,21.20
2019-04-16T10:22:13.845Z,21.20
2019-04-16T10:25:18.207Z,21.10
2019-04-16T10:28:29.422Z,21.10
2019-04-16T10:31:35.818Z,21.20
2019-04-16T10:34:40.214Z,21.10
2019-04-16T10:37:44.566Z,21.40
2019-04-16T10:40:54.054Z,21.50
2019-04-16T10:44:21.716Z,21.60
2019-04-16T10:47:50.517Z,21.50
2019-04-16T10:51:29.136Z,21.50
2019-04-16T10:54:52.588Z,21.20
2019-04-16T10:58:27.820Z,21.10
2019-04-16T11:01:39.852Z,21.00
2019-04-16T11:05:03.286Z,20.90
2019-04-16T11:08:12.068Z,20.90
2019-04-16T11:11:16.528Z,21.10
2019-04-16T11:14:20.908Z,21.00
2019-04-16T11:17:27.579Z,21.30
2019-04-16T11:20:32.107Z,21.30
2019-04-16T11:23:36.487Z,21.40
2019-04-16T11:26:44.449Z,21.50
2019-04-16T11:29:47.923Z,21.60
2019-04-16T11:32:53.441Z,21.70
2019-04-16T11:35:59.383Z,21.50
2019-04-16T11:39:05.690Z,21.40
2019-04-16T11:42:10.093Z,21.10
2019-04-16T11:45:15.184Z,21.00
2019-04-16T11:48:19.518Z,20.90
2019-04-16T11:51:25.015Z,20.70
2019-04-16T11:54:29.439Z,20.50
2019-04-16T11:57:34.128Z,20.50
2019-04-16T12:00:46.919Z,20.30
2019-04-16T12:04:10.980Z,20.20
2019-04-16T12:07:49.254Z,20.00
2019-04-16T12:11:15.599Z,19.70
2019-04-16T12:14:34.532Z,19.50
2019-04-16T12:18:04.455Z,19.20
2019-04-16T12:21:40.132Z,19.00
2019-04-16T12:25:06.255Z,18.80
2019-04-16T12:28:42.173Z,18.50
2019-04-16T12:32:06.125Z,18.30
2019-04-16T12:35:35.699Z,18.00
2019-04-16T12:38:44.997Z,17.80
2019-04-16T12:42:01.215Z,17.70
2019-04-16T12:45:28.163Z,17.50
2019-04-16T12:48:54.469Z,17.40
2019-04-16T12:52:23.628Z,17.40
2019-04-16T12:56:07.770Z,17.20
2019-04-16T12:59:22.063Z,17.10
2019-04-16T13:02:33.859Z,16.90
2019-04-16T13:06:06.547Z,16.90
2019-04-16T13:09:32.735Z,16.80
2019-04-16T13:13:13.705Z,16.80
2019-04-16T13:16:25.976Z,16.80
2019-04-16T13:19:36.772Z,16.80
2019-04-16T13:22:45.547Z,16.90
2019-04-16T13:26:05.527Z,16.90
2019-04-16T13:29:21.510Z,16.80
2019-04-16T13:32:27.813Z,16.80
2019-04-16T13:35:34.578Z,16.80
2019-04-16T13:38:42.627Z,16.70
2019-04-16T13:41:46.973Z,16.70
2019-04-16T13:45:17.559Z,16.80
2019-04-16T13:48:35.887Z,16.80
2019-04-16T13:51:40.453Z,16.70
2019-04-16T13:55:10.485Z,16.80
2019-04-16T13:58:25.474Z,16.70
2019-04-16T14:01:32.859Z,16.80
2019-04-16T14:04:37.259Z,16.80
2019-04-16T14:07:41.610Z,16.80
2019-04-16T14:10:46.026Z,16.70
2019-04-16T14:13:50.428Z,16.70
2019-04-16T14:16:54.662Z,16.60
2019-04-16T14:19:58.963Z,16.70
2019-04-16T14:23:03.601Z,16.50
2019-04-16T14:26:07.891Z,16.70
2019-04-16T14:29:12.301Z,16.70
2019-04-16T14:32:16.688Z,16.70
2019-04-16T14:35:33.353Z,16.80
2019-04-16T14:38:40.077Z,16.90
2019-04-16T14:41:48.717Z,17.00
2019-04-16T14:44:57.762Z,17.00
2019-04-16T14:48:07.606Z,16.90
2019-04-16T14:51:09.458Z,16.90
2019-04-16T14:54:20.405Z,17.00
2019-04-16T14:57:24.693Z,17.00
2019-04-16T15:00:57.325Z,16.90
2019-04-16T15:04:19.554Z,16.90
2019-04-16T15:07:51.974Z,16.90
2019-04-16T15:11:19.974Z,16.90
2019-04-16T15:14:29.487Z,16.80
2019-04-16T15:17:41.394Z,16.80
2019-04-16T15:20:53.885Z,16.70
2019-04-16T15:24:16.210Z,16.80
2019-04-16T15:27:39.552Z,16.70
2019-04-16T15:30:47.417Z,16.70
2019-04-16T15:34:03.483Z,16.60
2019-04-16T15:37:29.862Z,16.70
2019-04-16T15:40:39.309Z,16.70
2019-04-16T15:43:58.886Z,16.70
2019-04-16T15:47:18.023Z,16.50
2019-04-16T15:50:44.346Z,16.60
2019-04-16T15:54:16.732Z,16.40
2019-04-16T15:57:39.992Z,16.50
2019-04-16T16:00:58.939Z,16.40
2019-04-16T16:04:15.598Z,16.50
2019-04-16T16:07:32.346Z,16.40
2019-04-16T16:10:45.114Z,16.40
2019-04-16T16:13:48.058Z,16.30
2019-04-16T16:16:52.370Z,16.40
2019-04-16T16:19:56.859Z,16.30
2019-04-16T16:23:01.180Z,16.20
2019-04-16T16:26:05.687Z,16.20
2019-04-16T16:29:10.087Z,16.10
2019-04-16T16:32:15.590Z,16.00
2019-04-16T16:35:19.901Z,16.00
2019-04-16T16:38:24.416Z,15.80
2019-04-16T16:41:28.714Z,15.90
2019-04-16T16:44:33.065Z,15.70
2019-04-16T16:47:40.772Z,15.80
2019-04-16T16:50:45.126Z,15.60
2019-04-16T16:54:07.928Z,15.50
2019-04-16T16:57:23.943Z,15.50
2019-04-16T17:00:46.075Z,15.30
2019-04-16T17:03:55.031Z,15.30
2019-04-16T17:06:59.440Z,15.20
2019-04-16T17:10:03.779Z,15.10
2019-04-16T17:13:13.108Z,15.10
2019-04-16T17:16:14.881Z,15.00
2019-04-16T17:19:19.275Z,14.90
2019-04-16T17:22:23.636Z,14.80
2019-04-16T17:25:36.202Z,14.70
2019-04-16T17:28:34.091Z,14.60
2019-04-16T17:31:38.417Z,14.50
2019-04-16T17:34:42.852Z,14.40
2019-04-16T17:37:47.243Z,14.30
2019-04-16T17:40:59.579Z,14.20
2019-04-16T17:44:34.263Z,14.10
2019-04-16T17:48:09.514Z,13.90
2019-04-16T17:51:32.961Z,13.80
2019-04-16T17:54:58.964Z,13.60
2019-04-16T17:58:27.333Z,13.50
2019-04-16T18:01:47.774Z,13.30
2019-04-16T18:05:26.426Z,13.10
2019-04-16T18:08:52.542Z,13.00
2019-04-16T18:12:09.962Z,12.80
2019-04-16T18:15:21.801Z,12.50
2019-04-16T18:18:30.976Z,12.40
2019-04-16T18:21:49.241Z,12.30
2019-04-16T18:25:21.436Z,12.10
2019-04-16T18:28:30.347Z,11.90
2019-04-16T18:31:45.312Z,11.80
2019-04-16T18:35:20.697Z,11.80
2019-04-16T18:38:35.518Z,11.60
2019-04-16T18:41:55.823Z,11.50
2019-04-16T18:45:24.557Z,11.30
2019-04-16T18:48:31.224Z,11.30
2019-04-16T18:51:35.649Z,11.30
2019-04-16T18:54:40.029Z,11.10
2019-04-16T18:57:44.356Z,11.20
2019-04-16T19:00:51.159Z,11.10
2019-04-16T19:03:55.529Z,11.10
2019-04-16T19:06:59.921Z,11.10
2019-04-16T19:10:05.600Z,11.00
2019-04-16T19:13:11.724Z,11.00
2019-04-16T19:16:16.831Z,10.90
2019-04-16T19:19:22.334Z,10.70
2019-04-16T19:22:26.939Z,10.60
2019-04-16T19:25:31.324Z,10.50
2019-04-16T19:28:36.288Z,10.20
2019-04-16T19:31:42.313Z,10.00
2019-04-16T19:34:46.662Z,10.00
2019-04-16T19:37:50.942Z,9.80
2019-04-16T19:40:55.267Z,9.70
2019-04-16T19:43:59.636Z,9.50
2019-04-16T19:47:04.123Z,9.50
2019-04-16T19:50:12.160Z,9.30
2019-04-16T19:53:16.554Z,9.30
2019-04-16T19:56:22.041Z,9.30
2019-04-16T19:59:26.419Z,9.30
2019-04-16T20:02:33.284Z,9.20
2019-04-16T20:05:36.838Z,9.30
2019-04-16T20:08:42.649Z,9.30
2019-04-16T20:11:46.953Z,9.50
2019-04-16T20:14:51.265Z,9.30
2019-04-16T20:17:55.601Z,9.40
2019-04-16T20:21:01.774Z,9.40
2019-04-16T20:24:06.592Z,9.40
2019-04-16T20:27:10.987Z,9.30
2019-04-16T20:30:16.495Z,9.30
2019-04-16T20:33:20.800Z,9.20
2019-04-16T20:36:25.943Z,9.00
2019-04-16T20:39:30.311Z,9.10
2019-04-16T20:42:35.832Z,8.90
2019-04-16T20:45:40.218Z,8.80
2019-04-16T20:48:45.094Z,8.90
2019-04-16T20:51:50.068Z,8.80
2019-04-16T20:54:54.899Z,8.70
2019-04-16T20:58:00.261Z,8.60
2019-04-16T21:01:05.483Z,8.50
2019-04-16T21:04:09.783Z,8.50
2019-04-16T21:07:15.352Z,8.50
2019-04-16T21:10:19.862Z,8.40
2019-04-16T21:13:24.217Z,8.30
2019-04-16T21:16:33.510Z,8.20
2019-04-16T21:19:47.951Z,8.20
2019-04-16T21:22:53.035Z,8.10
2019-04-16T21:25:57.546Z,7.90
2019-04-16T21:29:14.165Z,8.00
2019-04-16T21:32:35.453Z,7.80
2019-04-16T21:35:42.723Z,7.80
2019-04-16T21:39:04.842Z,7.80
2019-04-16T21:42:09.174Z,7.70
2019-04-16T21:45:16.444Z,7.60
2019-04-16T21:48:20.017Z,7.60
2019-04-16T21:51:24.564Z,7.60
2019-04-16T21:54:30.460Z,7.50
2019-04-16T21:57:34.936Z,7.50
2019-04-16T22:00:59.765Z,7.50
2019-04-16T22:04:14.656Z,7.50
2019-04-16T22:07:24.215Z,7.40
2019-04-16T22:10:25.263Z,7.40
2019-04-16T22:13:29.954Z,7.30
2019-04-16T22:16:34.235Z,7.30
2019-04-16T22:19:53.007Z,7.30
2019-04-16T22:22:46.547Z,7.10
2019-04-16T22:25:50.677Z,7.30
2019-04-16T22:28:55.035Z,7.20
2019-04-16T22:31:59.419Z,7.10
2019-04-16T22:35:03.820Z,7.00
2019-04-16T22:38:13.273Z,7.00
2019-04-16T22:41:28.973Z,7.10
2019-04-16T22:44:47.005Z,7.00
2019-04-16T22:47:51.505Z,7.00
2019-04-16T22:50:55.933Z,7.00
2019-04-16T22:54:00.429Z,7.10
2019-04-16T22:57:06.742Z,7.20
2019-04-16T23:00:32.779Z,7.10
2019-04-16T23:03:37.188Z,7.30
2019-04-16T23:06:41.443Z,7.40
2019-04-16T23:09:48.324Z,7.40
2019-04-16T23:12:51.744Z,7.30
2019-04-16T23:15:56.082Z,7.40
2019-04-16T23:19:00.414Z,7.50
2019-04-16T23:22:04.816Z,7.50
2019-04-16T23:25:09.249Z,7.60
2019-04-16T23:28:13.571Z,7.50
2019-04-16T23:31:23.964Z,7.50
2019-04-16T23:34:29.130Z,7.50
2019-04-16T23:37:33.439Z,7.40
2019-04-16T23:40:40.760Z,7.50
2019-04-16T23:44:08.936Z,7.40
2019-04-16T23:47:42.205Z,7.40
2019-04-16T23:50:53.607Z,7.30
2019-04-16T23:54:07.909Z,7.40
2019-04-16T23:57:26.425Z,7.30
